createdAt,value
2018-03-04T00:01:05.292Z,93.57
2018-03-04T00:03:33.114Z,93.67
2018-03-04T00:06:00.709Z,100.43
2018-03-04T00:08:28.341Z,96.30
2018-03-04T00:10:55.972Z,105.37
2018-03-04T00:13:23.542Z,105.30
2018-03-04T00:15:51.302Z,100.03
2018-03-04T00:18:19.018Z,96.80
2018-03-04T00:20:46.837Z,104.33
2018-03-04T00:23:14.405Z,117.17
2018-03-04T00:25:41.986Z,115.13
2018-03-04T00:28:09.541Z,124.90
2018-03-04T00:30:37.309Z,119.43
2018-03-04T00:33:04.873Z,125.87
2018-03-04T00:35:32.442Z,120.67
2018-03-04T00:38:00.263Z,125.73
2018-03-04T00:40:27.822Z,100.60
2018-03-04T00:42:55.563Z,92.97
2018-03-04T00:45:23.135Z,122.87
2018-03-04T00:47:50.762Z,107.67
2018-03-04T00:50:18.370Z,111.40
2018-03-04T00:52:45.930Z,108.40
2018-03-04T00:55:13.505Z,110.67
2018-03-04T00:57:41.308Z,158.80
2018-03-04T01:00:09.124Z,151.50
2018-03-04T01:02:36.841Z,124.20
2018-03-04T01:05:04.530Z,121.27
2018-03-04T01:07:32.100Z,131.17
2018-03-04T01:09:59.896Z,126.17
2018-03-04T01:12:27.448Z,127.30
2018-03-04T01:14:55.115Z,137.30
2018-03-04T01:17:22.851Z,148.13
2018-03-04T01:19:50.411Z,138.43
2018-03-04T01:22:18.066Z,146.17
2018-03-04T01:24:45.804Z,148.77
2018-03-04T01:27:13.623Z,156.70
2018-03-04T01:29:41.325Z,146.97
2018-03-04T01:32:08.895Z,152.43
2018-03-04T01:34:36.653Z,157.73
2018-03-04T01:37:04.245Z,181.23
2018-03-04T01:39:31.851Z,176.77
2018-03-04T01:41:59.443Z,176.37
2018-03-04T01:44:27.249Z,176.57
2018-03-04T01:46:54.813Z,191.20
2018-03-04T01:49:22.585Z,186.70
2018-03-04T01:51:53.094Z,175.07
2018-03-04T01:54:20.682Z,154.13
2018-03-04T01:56:48.305Z,150.47
2018-03-04T01:59:15.948Z,146.53
2018-03-04T02:01:43.510Z,159.07
2018-03-04T02:04:11.088Z,150.97
2018-03-04T02:06:38.650Z,144.13
2018-03-04T02:09:06.409Z,149.03
2018-03-04T02:11:33.966Z,134.03
2018-03-04T02:14:01.594Z,139.70
2018-03-04T02:16:29.392Z,199.03
2018-03-04T02:18:56.991Z,204.33
2018-03-04T02:21:24.557Z,170.23
2018-03-04T02:23:52.132Z,197.33
2018-03-04T02:26:19.866Z,163.17
2018-03-04T02:28:47.479Z,150.33
2018-03-04T02:31:15.095Z,163.50
2018-03-04T02:33:42.699Z,176.60
2018-03-04T02:36:10.262Z,158.43
2018-03-04T02:38:38.053Z,122.07
2018-03-04T02:41:05.662Z,144.53
2018-03-04T02:43:33.490Z,142.27
2018-03-04T02:46:01.054Z,149.13
2018-03-04T02:48:28.913Z,145.47
2018-03-04T02:50:56.493Z,153.07
2018-03-04T02:53:24.262Z,173.30
2018-03-04T02:55:51.837Z,153.23
2018-03-04T02:58:19.403Z,153.40
2018-03-04T03:00:47.216Z,160.47
2018-03-04T03:03:14.777Z,183.80
2018-03-04T03:05:42.398Z,166.80
2018-03-04T03:08:09.959Z,158.13
2018-03-04T03:10:37.521Z,156.30
2018-03-04T03:13:05.305Z,161.97
2018-03-04T03:15:32.866Z,151.17
2018-03-04T03:18:00.641Z,158.00
2018-03-04T03:20:28.359Z,163.57
2018-03-04T03:22:56.178Z,165.87
2018-03-04T03:25:23.774Z,157.00
2018-03-04T03:27:51.364Z,162.27
2018-03-04T03:30:18.930Z,165.57
2018-03-04T03:32:46.495Z,168.17
2018-03-04T03:35:14.073Z,154.37
2018-03-04T03:37:41.885Z,167.43
2018-03-04T03:40:09.704Z,165.93
2018-03-04T03:42:37.276Z,167.17
2018-03-04T03:45:04.930Z,157.00
2018-03-04T03:47:32.507Z,173.27
2018-03-04T03:50:00.153Z,149.97
2018-03-04T03:52:27.732Z,163.57
2018-03-04T03:54:55.513Z,168.90
2018-03-04T03:57:23.153Z,154.67
2018-03-04T03:59:50.863Z,158.43
2018-03-04T04:02:18.456Z,153.30
2018-03-04T04:04:46.030Z,201.70
2018-03-04T04:07:13.792Z,179.67
2018-03-04T04:09:41.622Z,163.20
2018-03-04T04:12:09.283Z,175.30
2018-03-04T04:14:37.156Z,170.63
2018-03-04T04:17:04.723Z,156.57
2018-03-04T04:19:32.378Z,167.93
2018-03-04T04:22:00.000Z,142.37
2018-03-04T04:24:27.570Z,141.30
2018-03-04T04:26:55.118Z,169.60
2018-03-04T04:29:22.832Z,152.53
2018-03-04T04:31:50.467Z,143.70
2018-03-04T04:34:18.162Z,145.13
2018-03-04T04:36:45.718Z,186.30
2018-03-04T04:39:13.282Z,165.13
2018-03-04T04:41:40.838Z,163.63
2018-03-04T04:44:08.460Z,172.73
2018-03-04T04:46:36.022Z,161.73
2018-03-04T04:49:03.906Z,172.33
2018-03-04T04:51:31.725Z,160.30
2018-03-04T04:53:59.416Z,160.70
2018-03-04T04:56:27.027Z,165.90
2018-03-04T04:58:54.590Z,145.37
2018-03-04T05:01:22.218Z,93.43
2018-03-04T05:03:49.773Z,64.87
2018-03-04T05:06:17.609Z,73.30
2018-03-04T05:08:45.313Z,80.47
2018-03-04T05:11:12.870Z,61.87
2018-03-04T05:13:40.476Z,51.97
2018-03-04T05:16:08.027Z,49.43
2018-03-04T05:18:35.646Z,42.50
2018-03-04T05:21:03.441Z,45.07
2018-03-04T05:23:31.135Z,42.80
2018-03-04T05:25:58.702Z,42.93
2018-03-04T05:28:26.258Z,35.23
2018-03-04T05:30:53.802Z,42.63
2018-03-04T05:33:21.354Z,33.33
2018-03-04T05:35:49.147Z,37.53
2018-03-04T05:38:16.833Z,32.67
2018-03-04T05:40:44.548Z,36.60
2018-03-04T05:43:12.264Z,36.80
2018-03-04T05:45:39.822Z,36.57
2018-03-04T05:48:07.429Z,41.80
2018-03-04T05:50:35.034Z,43.47
2018-03-04T05:53:02.646Z,37.63
2018-03-04T05:55:30.198Z,35.27
2018-03-04T05:57:58.786Z,35.13
2018-03-04T06:00:26.349Z,41.23
2018-03-04T06:02:54.144Z,40.80
2018-03-04T06:05:21.707Z,47.60
2018-03-04T06:07:49.262Z,45.53
2018-03-04T06:10:17.069Z,47.63
2018-03-04T06:12:44.784Z,42.60
2018-03-04T06:15:12.500Z,44.07
2018-03-04T06:17:40.064Z,44.87
2018-03-04T06:20:07.831Z,54.60
2018-03-04T06:22:35.594Z,49.47
2018-03-04T06:25:03.164Z,49.80
2018-03-04T06:27:30.788Z,50.97
2018-03-04T06:29:58.360Z,51.73
2018-03-04T06:32:25.913Z,53.37
2018-03-04T06:34:53.680Z,48.77
2018-03-04T06:37:21.234Z,48.10
2018-03-04T06:39:49.018Z,46.87
2018-03-04T06:42:16.569Z,49.37
2018-03-04T06:44:44.185Z,48.93
2018-03-04T06:47:11.935Z,49.43
2018-03-04T06:49:39.486Z,57.37
2018-03-04T06:52:07.072Z,55.43
2018-03-04T06:54:34.630Z,58.67
2018-03-04T06:57:02.442Z,60.20
2018-03-04T06:59:30.142Z,58.80
2018-03-04T07:01:57.978Z,60.27
2018-03-04T07:04:25.545Z,61.70
2018-03-04T07:06:53.098Z,95.50
2018-03-04T07:09:20.662Z,68.53
2018-03-04T07:11:48.228Z,57.93
2018-03-04T07:14:15.790Z,66.60
2018-03-04T07:16:43.346Z,72.90
2018-03-04T07:19:10.962Z,65.07
2018-03-04T07:21:38.517Z,108.40
2018-03-04T07:24:06.238Z,88.33
2018-03-04T07:26:33.806Z,74.10
2018-03-04T07:29:01.364Z,78.63
2018-03-04T07:31:28.988Z,71.57
2018-03-04T07:33:56.545Z,74.33
2018-03-04T07:36:24.327Z,74.47
2018-03-04T07:38:51.889Z,82.80
2018-03-04T07:41:19.642Z,75.40
2018-03-04T07:43:47.483Z,100.77
2018-03-04T07:46:15.035Z,91.23
2018-03-04T07:48:42.598Z,86.60
2018-03-04T07:51:10.220Z,91.03
2018-03-04T07:53:37.921Z,88.47
2018-03-04T07:56:05.563Z,108.10
2018-03-04T07:58:33.126Z,101.27
2018-03-04T08:01:00.698Z,93.40
2018-03-04T08:03:28.254Z,111.00
2018-03-04T08:05:55.805Z,81.23
2018-03-04T08:08:23.430Z,79.13
2018-03-04T08:10:50.987Z,89.80
2018-03-04T08:13:18.550Z,75.97
2018-03-04T08:15:46.313Z,80.17
2018-03-04T08:18:13.870Z,85.70
2018-03-04T08:20:41.650Z,95.23
2018-03-04T08:23:09.199Z,74.87
2018-03-04T08:25:36.986Z,63.43
2018-03-04T08:28:16.388Z,71.23
2018-03-04T08:30:44.163Z,75.53
2018-03-04T08:33:11.719Z,61.00
2018-03-04T08:35:39.602Z,67.90
2018-03-04T08:38:07.424Z,66.23
2018-03-04T08:40:34.996Z,65.97
2018-03-04T08:43:02.563Z,70.43
2018-03-04T08:45:30.379Z,148.10
2018-03-04T08:47:57.943Z,68.90
2018-03-04T08:50:25.667Z,63.63
2018-03-04T08:52:53.528Z,71.73
2018-03-04T08:55:21.100Z,59.93
2018-03-04T08:57:48.666Z,54.23
2018-03-04T09:00:16.483Z,57.63
2018-03-04T09:02:44.299Z,47.07
2018-03-04T09:05:11.908Z,50.60
2018-03-04T09:07:39.635Z,81.30
2018-03-04T09:10:07.454Z,65.17
2018-03-04T09:12:35.022Z,62.70
2018-03-04T09:15:02.789Z,54.23
2018-03-04T09:17:30.358Z,47.13
2018-03-04T09:19:58.085Z,53.47
2018-03-04T09:22:25.654Z,92.93
2018-03-04T09:24:53.208Z,63.43
2018-03-04T09:27:20.870Z,65.23
2018-03-04T09:29:48.439Z,62.40
2018-03-04T09:32:16.011Z,62.43
2018-03-04T09:34:43.618Z,94.27
2018-03-04T09:37:11.179Z,62.93
2018-03-04T09:39:38.755Z,57.93
2018-03-04T09:42:06.486Z,62.83
2018-03-04T09:44:34.303Z,61.60
2018-03-04T09:47:01.870Z,60.20
2018-03-04T09:49:29.412Z,61.37
2018-03-04T09:51:57.049Z,64.73
2018-03-04T09:54:24.606Z,66.90
2018-03-04T09:56:52.397Z,77.13
2018-03-04T09:59:20.212Z,80.43
2018-03-04T10:01:47.833Z,94.03
2018-03-04T10:04:15.400Z,72.37
2018-03-04T10:06:43.046Z,68.40
2018-03-04T10:09:10.615Z,54.83
2018-03-04T10:11:38.184Z,60.27
2018-03-04T10:14:05.918Z,69.77
2018-03-04T10:16:33.740Z,66.10
2018-03-04T10:19:01.354Z,91.97
2018-03-04T10:21:28.915Z,74.23
2018-03-04T10:23:56.654Z,155.60
2018-03-04T10:26:24.300Z,122.10
2018-03-04T10:28:51.865Z,62.90
2018-03-04T10:31:19.466Z,70.80
2018-03-04T10:33:47.023Z,61.73
2018-03-04T10:36:14.880Z,188.47
2018-03-04T10:38:42.578Z,82.07
2018-03-04T10:41:10.130Z,69.27
2018-03-04T10:43:37.725Z,63.80
2018-03-04T10:46:05.453Z,71.50
2018-03-04T10:48:33.026Z,113.43
2018-03-04T10:51:00.596Z,81.63
2018-03-04T10:53:28.398Z,78.63
2018-03-04T10:55:55.998Z,76.07
2018-03-04T10:58:23.644Z,91.57
2018-03-04T11:00:56.806Z,90.77
2018-03-04T11:03:24.598Z,81.37
2018-03-04T11:05:52.210Z,83.43
2018-03-04T11:08:19.809Z,82.80
2018-03-04T11:10:47.480Z,100.50
2018-03-04T11:13:15.050Z,162.33
2018-03-04T11:15:42.627Z,269.83
2018-03-04T11:18:10.186Z,258.40
2018-03-04T11:20:37.923Z,200.50
2018-03-04T11:23:05.510Z,121.47
2018-03-04T11:25:33.087Z,102.00
2018-03-04T11:28:00.698Z,135.80
2018-03-04T11:30:28.357Z,113.50
2018-03-04T11:32:55.938Z,120.33
2018-03-04T11:35:23.734Z,120.73
2018-03-04T11:37:51.306Z,108.67
2018-03-04T11:40:18.877Z,118.60
2018-03-04T11:42:46.644Z,113.33
2018-03-04T11:45:14.278Z,115.53
2018-03-04T11:47:41.864Z,117.03
2018-03-04T11:50:09.638Z,114.37
2018-03-04T11:52:37.458Z,113.40
2018-03-04T11:55:05.022Z,114.20
2018-03-04T11:57:32.599Z,121.83
2018-03-04T12:00:00.158Z,105.23
2018-03-04T12:02:27.777Z,112.83
2018-03-04T12:04:55.550Z,111.50
2018-03-04T12:07:23.163Z,110.17
2018-03-04T12:09:50.847Z,106.00
2018-03-04T12:12:18.409Z,118.93
2018-03-04T12:14:45.963Z,123.53
2018-03-04T12:17:13.735Z,147.07
2018-03-04T12:19:41.434Z,152.43
2018-03-04T12:22:09.000Z,141.53
2018-03-04T12:24:36.575Z,112.47
2018-03-04T12:27:04.151Z,121.40
2018-03-04T12:29:31.717Z,105.57
2018-03-04T12:31:59.302Z,117.13
2018-03-04T12:34:26.866Z,94.30
2018-03-04T12:36:54.513Z,108.83
2018-03-04T12:39:22.297Z,122.37
2018-03-04T12:41:49.861Z,121.73
2018-03-04T12:44:17.598Z,107.90
2018-03-04T12:46:45.241Z,104.13
2018-03-04T12:49:12.818Z,131.97
2018-03-04T12:51:40.396Z,119.00
2018-03-04T12:54:08.206Z,138.20
2018-03-04T12:56:35.913Z,138.17
2018-03-04T12:59:03.740Z,116.60
2018-03-04T13:01:31.557Z,120.73
2018-03-04T13:03:59.379Z,150.57
2018-03-04T13:06:26.966Z,103.97
2018-03-04T13:08:54.713Z,113.37
2018-03-04T13:11:22.532Z,109.00
2018-03-04T13:13:50.087Z,127.70
2018-03-04T13:16:17.770Z,117.73
2018-03-04T13:18:45.585Z,186.90
2018-03-04T13:21:13.182Z,128.57
2018-03-04T13:23:40.758Z,108.60
2018-03-04T13:26:08.325Z,120.60
2018-03-04T13:28:35.935Z,105.80
2018-03-04T13:31:03.651Z,103.80
2018-03-04T13:33:31.218Z,117.87
2018-03-04T13:35:59.011Z,116.73
2018-03-04T13:38:26.574Z,168.67
2018-03-04T13:40:54.238Z,125.93
2018-03-04T13:43:21.817Z,114.47
2018-03-04T13:45:49.518Z,121.27
2018-03-04T13:48:17.219Z,141.43
2018-03-04T13:50:44.791Z,125.93
2018-03-04T13:53:12.372Z,182.73
2018-03-04T13:55:40.154Z,152.57
2018-03-04T13:58:07.734Z,254.43
2018-03-04T14:00:35.491Z,144.53
2018-03-04T14:03:03.147Z,131.20
2018-03-04T14:05:30.811Z,258.70
2018-03-04T14:07:58.374Z,161.60
2018-03-04T14:10:25.945Z,141.17
2018-03-04T14:12:53.680Z,143.10
2018-03-04T14:15:21.253Z,136.33
2018-03-04T14:17:48.984Z,144.20
2018-03-04T14:20:16.608Z,177.33
2018-03-04T14:22:44.340Z,177.80
2018-03-04T14:25:11.902Z,142.73
2018-03-04T14:27:39.484Z,178.97
2018-03-04T14:30:07.046Z,197.77
2018-03-04T14:32:34.807Z,157.30
2018-03-04T14:35:02.487Z,148.80
2018-03-04T14:37:30.259Z,135.40
2018-03-04T14:39:57.831Z,156.03
2018-03-04T14:42:25.394Z,138.93
2018-03-04T14:44:53.022Z,137.73
2018-03-04T14:47:20.845Z,152.67
2018-03-04T14:49:48.411Z,137.53
2018-03-04T14:52:15.986Z,128.40
2018-03-04T14:54:43.549Z,140.17
2018-03-04T14:57:11.131Z,140.57
2018-03-04T14:59:38.920Z,137.70
2018-03-04T15:02:06.482Z,141.07
2018-03-04T15:04:34.124Z,158.03
2018-03-04T15:07:01.875Z,171.03
2018-03-04T15:09:29.450Z,135.70
2018-03-04T15:11:57.401Z,151.17
2018-03-04T15:14:25.009Z,172.60
2018-03-04T15:16:52.570Z,167.60
2018-03-04T15:19:20.256Z,183.93
2018-03-04T15:21:47.830Z,196.77
2018-03-04T15:24:15.394Z,184.97
2018-03-04T15:26:43.218Z,213.00
2018-03-04T15:29:10.777Z,195.93
2018-03-04T15:31:38.387Z,178.97
2018-03-04T15:34:05.952Z,185.27
2018-03-04T15:36:33.581Z,182.37
2018-03-04T15:39:01.157Z,202.03
2018-03-04T15:41:28.747Z,168.50
2018-03-04T15:43:56.315Z,175.47
2018-03-04T15:46:23.877Z,176.60
2018-03-04T15:48:51.498Z,176.03
2018-03-04T15:51:19.296Z,189.23
2018-03-04T15:53:46.908Z,207.90
2018-03-04T15:56:14.732Z,238.53
2018-03-04T15:58:42.310Z,344.17
2018-03-04T16:01:09.886Z,194.30
2018-03-04T16:03:38.148Z,215.60
2018-03-04T16:06:06.007Z,172.70
2018-03-04T16:08:33.567Z,156.87
2018-03-04T16:11:01.132Z,198.03
2018-03-04T16:13:28.706Z,191.77
2018-03-04T16:15:56.478Z,173.80
2018-03-04T16:18:24.050Z,195.37
2018-03-04T16:20:51.705Z,201.13
2018-03-04T16:23:19.535Z,219.13
2018-03-04T16:25:47.104Z,202.67
2018-03-04T16:28:14.838Z,228.33
2018-03-04T16:30:42.553Z,227.33
2018-03-04T16:33:10.152Z,213.73
2018-03-04T16:35:37.731Z,241.87
2018-03-04T16:38:05.324Z,225.17
2018-03-04T16:40:32.950Z,252.17
2018-03-04T16:43:00.674Z,252.27
2018-03-04T16:45:28.493Z,263.33
2018-03-04T16:47:56.135Z,260.77
2018-03-04T16:50:23.655Z,279.57
2018-03-04T16:52:51.249Z,271.27
2018-03-04T16:55:18.818Z,297.07
2018-03-04T16:57:46.529Z,309.30
2018-03-04T17:00:14.306Z,311.27
2018-03-04T17:02:41.925Z,328.33
2018-03-04T17:05:09.498Z,246.07
2018-03-04T17:07:37.068Z,193.67
2018-03-04T17:10:04.871Z,178.03
2018-03-04T17:12:32.445Z,191.70
2018-03-04T17:15:00.080Z,207.53
2018-03-04T17:17:27.826Z,204.53
2018-03-04T17:19:55.544Z,245.70
2018-03-04T17:22:23.096Z,211.67
2018-03-04T17:24:50.722Z,200.30
2018-03-04T17:27:18.502Z,201.10
2018-03-04T17:29:46.224Z,245.37
2018-03-04T17:32:13.899Z,274.93
2018-03-04T17:34:41.447Z,273.37
2018-03-04T17:37:09.013Z,275.67
2018-03-04T17:39:36.755Z,237.47
2018-03-04T17:42:04.470Z,234.30
2018-03-04T17:44:32.103Z,221.83
2018-03-04T17:46:59.657Z,234.37
2018-03-04T17:49:27.289Z,238.47
2018-03-04T17:51:55.089Z,306.53
2018-03-04T17:54:22.896Z,270.63
2018-03-04T17:56:50.715Z,260.70
2018-03-04T17:59:18.532Z,277.63
2018-03-04T18:01:46.115Z,395.07
2018-03-04T18:04:13.680Z,305.20
2018-03-04T18:06:41.489Z,303.33
2018-03-04T18:09:09.304Z,249.87
2018-03-04T18:11:37.024Z,230.33
2018-03-04T18:14:04.616Z,260.97
2018-03-04T18:16:32.362Z,240.90
2018-03-04T18:19:00.161Z,270.23
2018-03-04T18:21:27.726Z,394.30
2018-03-04T18:23:55.358Z,347.90
2018-03-04T18:26:23.133Z,309.90
2018-03-04T18:28:50.827Z,310.67
2018-03-04T18:31:18.405Z,297.50
2018-03-04T18:33:45.971Z,277.50
2018-03-04T18:36:13.550Z,279.60
2018-03-04T18:38:41.113Z,274.03
2018-03-04T18:41:08.939Z,253.47
2018-03-04T18:43:36.672Z,268.67
2018-03-04T18:46:04.242Z,243.03
2018-03-04T18:48:31.805Z,241.10
2018-03-04T18:50:59.389Z,249.67
2018-03-04T18:53:27.070Z,316.23
2018-03-04T18:55:54.642Z,244.03
2018-03-04T18:58:22.202Z,199.07
2018-03-04T19:00:49.982Z,217.57
2018-03-04T19:03:17.699Z,229.20
2018-03-04T19:05:45.370Z,220.40
2018-03-04T19:08:12.930Z,219.50
2018-03-04T19:10:40.494Z,217.47
2018-03-04T19:13:08.241Z,203.73
2018-03-04T19:15:35.879Z,291.77
2018-03-04T19:18:03.521Z,236.67
2018-03-04T19:20:31.082Z,216.70
2018-03-04T19:22:58.642Z,256.63
2018-03-04T19:25:26.462Z,258.67
2018-03-04T19:27:54.037Z,238.40
2018-03-04T19:30:21.798Z,233.30
2018-03-04T19:32:49.616Z,262.47
2018-03-04T19:35:17.249Z,236.27
2018-03-04T19:37:44.818Z,227.73
2018-03-04T19:40:12.404Z,259.27
2018-03-04T19:42:39.985Z,282.10
2018-03-04T19:45:07.805Z,268.23
2018-03-04T19:47:35.614Z,252.23
2018-03-04T19:50:03.442Z,264.17
2018-03-04T19:52:31.100Z,245.37
2018-03-04T19:54:58.768Z,294.30
2018-03-04T19:57:26.419Z,299.37
2018-03-04T19:59:53.995Z,299.27
2018-03-04T20:02:21.731Z,242.43
2018-03-04T20:04:49.550Z,240.23
2018-03-04T20:07:17.286Z,269.40
2018-03-04T20:09:44.854Z,270.07
2018-03-04T20:12:12.605Z,320.90
2018-03-04T20:14:40.420Z,287.80
2018-03-04T20:17:08.056Z,289.53
2018-03-04T20:19:35.638Z,243.67
2018-03-04T20:22:03.214Z,242.97
2018-03-04T20:24:30.796Z,249.57
2018-03-04T20:26:58.512Z,238.00
2018-03-04T20:29:26.291Z,239.30
2018-03-04T20:31:54.036Z,232.10
2018-03-04T20:34:21.601Z,272.73
2018-03-04T20:36:49.178Z,277.63
2018-03-04T20:39:16.745Z,291.73
2018-03-04T20:41:44.418Z,283.30
2018-03-04T20:44:11.981Z,300.30
2018-03-04T20:46:39.702Z,407.70
2018-03-04T20:49:07.474Z,417.07
2018-03-04T20:51:35.293Z,389.87
2018-03-04T20:54:02.884Z,344.80
2018-03-04T20:56:30.521Z,345.83
2018-03-04T20:58:58.104Z,367.80
2018-03-04T21:01:25.754Z,304.80
2018-03-04T21:03:53.472Z,232.40
2018-03-04T21:06:21.059Z,222.53
2018-03-04T21:08:48.724Z,206.33
2018-03-04T21:11:16.300Z,203.73
2018-03-04T21:13:43.940Z,206.33
2018-03-04T21:16:11.771Z,219.27
2018-03-04T21:18:39.590Z,227.67
2018-03-04T21:21:07.412Z,258.00
2018-03-04T21:23:34.995Z,246.70
2018-03-04T21:26:02.563Z,238.97
2018-03-04T21:28:30.138Z,239.33
2018-03-04T21:30:57.704Z,255.03
2018-03-04T21:33:25.497Z,242.43
2018-03-04T21:35:53.067Z,255.43
2018-03-04T21:38:20.838Z,257.97
2018-03-04T21:40:48.410Z,267.33
2018-03-04T21:43:15.973Z,263.20
2018-03-04T21:45:43.546Z,275.70
2018-03-04T21:48:11.113Z,301.97
2018-03-04T21:50:38.925Z,229.67
2018-03-04T21:53:06.498Z,289.67
2018-03-04T21:55:34.122Z,307.10
2018-03-04T21:58:01.686Z,307.47
2018-03-04T22:00:29.494Z,312.23
2018-03-04T22:02:57.078Z,290.33
2018-03-04T22:05:24.794Z,329.53
2018-03-04T22:07:52.417Z,303.73
2018-03-04T22:10:20.169Z,253.20
2018-03-04T22:12:47.934Z,248.77
2018-03-04T22:15:15.511Z,252.90
2018-03-04T22:17:43.082Z,252.60
2018-03-04T22:20:10.837Z,245.33
2018-03-04T22:22:38.441Z,237.07
2018-03-04T22:25:06.275Z,238.20
2018-03-04T22:27:33.836Z,231.57
2018-03-04T22:30:01.517Z,224.80
2018-03-04T22:32:29.077Z,258.90
2018-03-04T22:34:56.651Z,265.90
2018-03-04T22:37:24.464Z,272.93
2018-03-04T22:39:52.282Z,269.33
2018-03-04T22:42:19.854Z,270.13
2018-03-04T22:44:47.436Z,273.77
2018-03-04T22:47:15.071Z,289.97
2018-03-04T22:49:42.954Z,275.07
2018-03-04T22:52:10.525Z,288.23
2018-03-04T22:54:38.098Z,300.70
2018-03-04T22:57:05.666Z,307.10
2018-03-04T22:59:33.424Z,281.87
2018-03-04T23:02:01.242Z,297.30
2018-03-04T23:04:28.862Z,316.20
2018-03-04T23:06:56.427Z,298.00
2018-03-04T23:09:24.164Z,296.50
2018-03-04T23:11:51.738Z,304.70
2018-03-04T23:14:19.734Z,354.23
2018-03-04T23:16:47.317Z,330.60
2018-03-04T23:19:15.056Z,285.70
2018-03-04T23:21:42.692Z,298.73
2018-03-04T23:24:10.407Z,286.90
2018-03-04T23:26:38.228Z,292.83
2018-03-04T23:29:05.805Z,311.87
2018-03-04T23:31:33.370Z,288.10
2018-03-04T23:34:01.178Z,299.77
2018-03-04T23:36:28.745Z,300.90
2018-03-04T23:38:56.321Z,309.73
2018-03-04T23:41:24.132Z,302.20
2018-03-04T23:43:51.701Z,308.10
2018-03-04T23:46:19.376Z,316.33
2018-03-04T23:48:46.933Z,333.07
2018-03-04T23:51:14.595Z,333.27
2018-03-04T23:53:42.421Z,306.53
2018-03-04T23:56:09.986Z,297.57
2018-03-04T23:58:37.562Z,271.73
